首页
METAR-TAF:

METAR-TAF

机场 :

Mason City Municipal Airport

麦逊城, 艾奥瓦州, 美国

纬度: 43-09-28N, 经度: 093-19-53W, 海拔: 370米

当前天气观测

该预报发布于49分钟前的17:53 UTC
风速8节,风向北转西北
温度 -15°C
湿度 78%
气压 1038 hPa
能見度: 16.1公里
天空无云

METAR: KMCW 201753Z AUTO 34008KT 10SM CLR M15/M18 A3066 RMK AO2 SLP410 60000 T11501183 11150 21167 50008

时间: 12:42 (18:42 UTC)

预报

该预报发布于1小时和18分钟前的17:24 UTC
预报有效从20日的 18点(UTC)到 21日的 18点(UTC)
风速8节,风向北转西北
能見度: 10公里
散云层高于1900英尺
多云层高于9000英尺
从 20日的 2200点(UTC)
风速5节,风向
能見度: 10公里
散云层高于20000英尺
从 21日的 1600点(UTC)
风速11节,风向南转西南,有时为20节阵风
能見度: 10公里
少量云层高于25000英尺

TAF: KMCW 201724Z 2018/2118 33008KT P6SM SCT019 BKN090 FM202200 36005KT P6SM SCT200 FM211600 20011G20KT P6SM FEW250

超过4000个机场的气象观测和天气预报(METAR&TAF报告)。

可查询的气象台以黄色和红色小点在地图上表示。

将鼠标移到小点上方,可查看气象台名称。

然后点击查看天气观测和预报。

如需切换地图:点击带黑十字的绿色按钮放大地图;点击带横线的绿色按钮缩小地图;或者点击绿色箭头查看邻近地区的地图。


METAR-TAF: